SWR52F EDDL-LSZH
Flight info
| Callsign | SWR52F |
|---|---|
| Flight time | 0h 49m |
| Altitude | 31000 |
| Route | DODEN1T/23L DODEN Y852 TUSUK DCT ULNOK L607 SUNEG T721 LAMGO/N0454F270 T721 RILAX |
| Aircraft | B77W/H-SDE1E2E3FGHIJ2J3J4J5M1RWXY/LB1D1 |
Departure
| Time | 2026-05-05 15:40 |
|---|---|
| Airport | Düsseldorf Airport (EDDL) |
Arrival
| Time | 2026-05-05 16:30 |
|---|---|
| Airport | Zürich Airport (LSZH) |
| Time | Latitude | Longitude | Altitude | Speed | Heading |
|---|---|---|---|---|---|
| 2026-05-05 12:12 | 51.27728 | 6.75574 | 131 ft | 0 kts | 63° |
| 2026-05-05 15:34 | 51.27723 | 6.75560 | 131 ft | 2 kts | 63° |
| 2026-05-05 15:34 | 51.27719 | 6.75547 | 131 ft | 2 kts | 63° |
| 2026-05-05 15:35 | 51.27711 | 6.75527 | 132 ft | 2 kts | 46° |
| 2026-05-05 15:35 | 51.27700 | 6.75512 | 132 ft | 2 kts | 30° |
| 2026-05-05 15:35 | 51.27686 | 6.75502 | 133 ft | 2 kts | 16° |
| 2026-05-05 15:35 | 51.27671 | 6.75497 | 133 ft | 2 kts | 1° |
| 2026-05-05 15:36 | 51.27657 | 6.75499 | 133 ft | 2 kts | 346° |
| 2026-05-05 15:36 | 51.27645 | 6.75505 | 133 ft | 0 kts | 334° |
| 2026-05-05 15:36 | 51.27641 | 6.75509 | 133 ft | 0 kts | 333° |
| 2026-05-05 15:38 | 51.27647 | 6.75504 | 133 ft | 1 kts | 333° |
| 2026-05-05 15:38 | 51.27671 | 6.75484 | 133 ft | 6 kts | 333° |
| 2026-05-05 15:38 | 51.27733 | 6.75435 | 132 ft | 12 kts | 334° |
| 2026-05-05 15:39 | 51.27813 | 6.75371 | 130 ft | 12 kts | 333° |
| 2026-05-05 15:39 | 51.27893 | 6.75307 | 129 ft | 12 kts | 334° |
| 2026-05-05 15:39 | 51.27975 | 6.75260 | 127 ft | 12 kts | 10° |
| 2026-05-05 15:39 | 51.28066 | 6.75423 | 127 ft | 43 kts | 53° |
| 2026-05-05 15:40 | 51.28405 | 6.76141 | 127 ft | 116 kts | 57° |
| 2026-05-05 15:40 | 51.29010 | 6.77403 | 277 ft | 162 kts | 51° |
| 2026-05-05 15:40 | 51.29710 | 6.78916 | 859 ft | 177 kts | 51° |
| 2026-05-05 15:40 | 51.30411 | 6.80394 | 1813 ft | 166 kts | 51° |
| 2026-05-05 15:41 | 51.31144 | 6.81933 | 2161 ft | 184 kts | 51° |
| 2026-05-05 15:41 | 51.31968 | 6.83664 | 2423 ft | 209 kts | 51° |
| 2026-05-05 15:41 | 51.32881 | 6.85588 | 2786 ft | 231 kts | 52° |
| 2026-05-05 15:41 | 51.33875 | 6.87746 | 3276 ft | 249 kts | 54° |
| 2026-05-05 15:42 | 51.34821 | 6.90086 | 4034 ft | 255 kts | 65° |
| 2026-05-05 15:42 | 51.35186 | 6.92814 | 4832 ft | 259 kts | 90° |
| 2026-05-05 15:42 | 51.35006 | 6.95694 | 5546 ft | 266 kts | 97° |
| 2026-05-05 15:42 | 51.34711 | 6.98651 | 6242 ft | 273 kts | 98° |
| 2026-05-05 15:43 | 51.34403 | 7.01644 | 6992 ft | 277 kts | 99° |
| 2026-05-05 15:43 | 51.34099 | 7.04642 | 7786 ft | 279 kts | 99° |
| 2026-05-05 15:43 | 51.33789 | 7.07715 | 8533 ft | 282 kts | 99° |
| 2026-05-05 15:43 | 51.33477 | 7.10800 | 9266 ft | 285 kts | 100° |
| 2026-05-05 15:44 | 51.33159 | 7.13928 | 9969 ft | 289 kts | 101° |
| 2026-05-05 15:44 | 51.32643 | 7.17066 | 10357 ft | 303 kts | 112° |
| 2026-05-05 15:44 | 51.31635 | 7.20133 | 10623 ft | 322 kts | 126° |
| 2026-05-05 15:44 | 51.30107 | 7.22850 | 10906 ft | 340 kts | 140° |
| 2026-05-05 15:45 | 51.28254 | 7.25348 | 11248 ft | 358 kts | 139° |
| 2026-05-05 15:45 | 51.26375 | 7.28071 | 11879 ft | 367 kts | 137° |
| 2026-05-05 15:45 | 51.24548 | 7.30850 | 12703 ft | 369 kts | 136° |
| 2026-05-05 15:45 | 51.22703 | 7.33707 | 13555 ft | 372 kts | 136° |
| 2026-05-05 15:46 | 51.20850 | 7.36592 | 14358 ft | 377 kts | 136° |
| 2026-05-05 15:46 | 51.18986 | 7.39506 | 15170 ft | 381 kts | 135° |
| 2026-05-05 15:46 | 51.17075 | 7.42497 | 16045 ft | 384 kts | 136° |
| 2026-05-05 15:46 | 51.15185 | 7.45454 | 16840 ft | 388 kts | 136° |
| 2026-05-05 15:47 | 51.13243 | 7.48431 | 17641 ft | 392 kts | 136° |
| 2026-05-05 15:47 | 51.11930 | 7.50433 | 18152 ft | 394 kts | 137° |
| 2026-05-05 15:47 | 51.09281 | 7.54471 | 19172 ft | 399 kts | 137° |
| 2026-05-05 15:47 | 51.07271 | 7.57533 | 19949 ft | 402 kts | 137° |
| 2026-05-05 15:48 | 51.05263 | 7.60590 | 20639 ft | 407 kts | 137° |
| 2026-05-05 15:48 | 51.03204 | 7.63721 | 21346 ft | 410 kts | 137° |
| 2026-05-05 15:48 | 51.01140 | 7.66857 | 22063 ft | 413 kts | 138° |
| 2026-05-05 15:48 | 50.99085 | 7.69975 | 22735 ft | 416 kts | 138° |
| 2026-05-05 15:49 | 50.96932 | 7.73102 | 23375 ft | 419 kts | 143° |
| 2026-05-05 15:49 | 50.94534 | 7.75752 | 23967 ft | 422 kts | 149° |
| 2026-05-05 15:49 | 50.92065 | 7.78198 | 24563 ft | 426 kts | 149° |
| 2026-05-05 15:49 | 50.89524 | 7.80698 | 25181 ft | 429 kts | 149° |
| 2026-05-05 15:50 | 50.86986 | 7.83193 | 25828 ft | 432 kts | 149° |
| 2026-05-05 15:50 | 50.84454 | 7.85679 | 26443 ft | 435 kts | 149° |
| 2026-05-05 15:50 | 50.81885 | 7.88198 | 27025 ft | 438 kts | 149° |
| 2026-05-05 15:50 | 50.79290 | 7.90741 | 27616 ft | 441 kts | 149° |
| 2026-05-05 15:51 | 50.76662 | 7.93313 | 28221 ft | 444 kts | 149° |
| 2026-05-05 15:51 | 50.74041 | 7.95874 | 28805 ft | 447 kts | 149° |
| 2026-05-05 15:51 | 50.71402 | 7.98451 | 29462 ft | 448 kts | 150° |
| 2026-05-05 15:51 | 50.68766 | 8.01021 | 30282 ft | 445 kts | 150° |
| 2026-05-05 15:52 | 50.66098 | 8.03619 | 30786 ft | 446 kts | 150° |
| 2026-05-05 15:52 | 50.60617 | 8.08116 | 30818 ft | 438 kts | 161° |
| 2026-05-05 15:53 | 50.54979 | 8.09984 | 30821 ft | 438 kts | 174° |
| 2026-05-05 15:53 | 50.49234 | 8.10763 | 30806 ft | 438 kts | 175° |
| 2026-05-05 15:54 | 50.43183 | 8.11560 | 30806 ft | 439 kts | 174° |
| 2026-05-05 15:54 | 50.37095 | 8.12357 | 30802 ft | 440 kts | 174° |
| 2026-05-05 15:55 | 50.31007 | 8.13152 | 30808 ft | 440 kts | 174° |
| 2026-05-05 15:55 | 50.24890 | 8.13948 | 30809 ft | 440 kts | 174° |
| 2026-05-05 15:56 | 50.18792 | 8.14739 | 30815 ft | 441 kts | 174° |
| 2026-05-05 15:56 | 50.12793 | 8.16725 | 30822 ft | 440 kts | 159° |
| 2026-05-05 15:57 | 50.07377 | 8.21122 | 30832 ft | 440 kts | 149° |
| 2026-05-05 15:57 | 50.02110 | 8.26009 | 30830 ft | 440 kts | 149° |
| 2026-05-05 15:58 | 49.96830 | 8.30892 | 30830 ft | 440 kts | 149° |
| 2026-05-05 15:58 | 49.91588 | 8.35723 | 30834 ft | 439 kts | 149° |
| 2026-05-05 15:59 | 49.86337 | 8.40568 | 30835 ft | 440 kts | 147° |
| 2026-05-05 15:59 | 49.81639 | 8.46595 | 30839 ft | 441 kts | 137° |
| 2026-05-05 16:00 | 49.77182 | 8.53100 | 30831 ft | 441 kts | 137° |
| 2026-05-05 16:00 | 49.72404 | 8.58858 | 30829 ft | 440 kts | 150° |
| 2026-05-05 16:01 | 49.66690 | 8.62277 | 30820 ft | 440 kts | 167° |
| 2026-05-05 16:01 | 49.60687 | 8.64004 | 30833 ft | 438 kts | 168° |
| 2026-05-05 16:02 | 49.54683 | 8.65665 | 30830 ft | 439 kts | 169° |
| 2026-05-05 16:02 | 49.48663 | 8.67337 | 30835 ft | 439 kts | 168° |
| 2026-05-05 16:03 | 49.42914 | 8.70420 | 30842 ft | 439 kts | 156° |
| 2026-05-05 16:03 | 49.37358 | 8.74290 | 30834 ft | 438 kts | 156° |
| 2026-05-05 16:04 | 49.31923 | 8.78069 | 30831 ft | 439 kts | 156° |
| 2026-05-05 16:04 | 49.26357 | 8.81927 | 30836 ft | 438 kts | 156° |
| 2026-05-05 16:05 | 49.20563 | 8.84765 | 30842 ft | 438 kts | 170° |
| 2026-05-05 16:05 | 49.14529 | 8.84914 | 30836 ft | 442 kts | 186° |
| 2026-05-05 16:06 | 49.08460 | 8.83320 | 30846 ft | 443 kts | 188° |
| 2026-05-05 16:06 | 49.02398 | 8.81665 | 30841 ft | 443 kts | 188° |
| 2026-05-05 16:07 | 48.96366 | 8.80025 | 30845 ft | 442 kts | 188° |
| 2026-05-05 16:07 | 48.90413 | 8.78413 | 30832 ft | 443 kts | 188° |
| 2026-05-05 16:08 | 48.84301 | 8.76765 | 30855 ft | 443 kts | 188° |
| 2026-05-05 16:08 | 48.78238 | 8.75138 | 30849 ft | 441 kts | 188° |
| 2026-05-05 16:09 | 48.72198 | 8.73522 | 30853 ft | 441 kts | 188° |
| 2026-05-05 16:09 | 48.66148 | 8.71906 | 30851 ft | 442 kts | 189° |
| 2026-05-05 16:10 | 48.60154 | 8.70308 | 30516 ft | 430 kts | 189° |
| 2026-05-05 16:10 | 48.57221 | 8.69528 | 29983 ft | 426 kts | 189° |
| 2026-05-05 16:10 | 48.54324 | 8.68759 | 29439 ft | 423 kts | 189° |
| 2026-05-05 16:10 | 48.51476 | 8.68004 | 28949 ft | 418 kts | 189° |
| 2026-05-05 16:11 | 48.48628 | 8.67249 | 28497 ft | 413 kts | 189° |
| 2026-05-05 16:11 | 48.39981 | 8.64965 | 27047 ft | 425 kts | 189° |
| 2026-05-05 16:12 | 48.37081 | 8.64192 | 26557 ft | 420 kts | 190° |
| 2026-05-05 16:12 | 48.31461 | 8.62489 | 25578 ft | 411 kts | 191° |
| 2026-05-05 16:13 | 48.23218 | 8.59986 | 24096 ft | 397 kts | 191° |
| 2026-05-05 16:13 | 48.20519 | 8.59171 | 23603 ft | 393 kts | 191° |
| 2026-05-05 16:13 | 48.17853 | 8.58369 | 23115 ft | 389 kts | 191° |
| 2026-05-05 16:14 | 48.12637 | 8.56807 | 22159 ft | 381 kts | 191° |
| 2026-05-05 16:14 | 48.07400 | 8.55247 | 21194 ft | 391 kts | 191° |
| 2026-05-05 16:15 | 48.02110 | 8.53675 | 20190 ft | 385 kts | 192° |
| 2026-05-05 16:15 | 47.96911 | 8.52140 | 19196 ft | 377 kts | 190° |
| 2026-05-05 16:16 | 47.91759 | 8.52192 | 18215 ft | 372 kts | 171° |
| 2026-05-05 16:16 | 47.86712 | 8.53741 | 17267 ft | 368 kts | 170° |
| 2026-05-05 16:17 | 47.81783 | 8.55283 | 16271 ft | 362 kts | 170° |
| 2026-05-05 16:17 | 47.79343 | 8.56045 | 15807 ft | 359 kts | 170° |
| 2026-05-05 16:18 | 47.74492 | 8.57559 | 14845 ft | 354 kts | 170° |
| 2026-05-05 16:18 | 47.72099 | 8.58305 | 14381 ft | 351 kts | 170° |
| 2026-05-05 16:18 | 47.67599 | 8.61023 | 13416 ft | 353 kts | 146° |
| 2026-05-05 16:19 | 47.65806 | 8.63462 | 12934 ft | 355 kts | 134° |
| 2026-05-05 16:19 | 47.64226 | 8.66260 | 12511 ft | 352 kts | 132° |
| 2026-05-05 16:19 | 47.61150 | 8.71870 | 11589 ft | 349 kts | 131° |
| 2026-05-05 16:20 | 47.58132 | 8.77381 | 10698 ft | 343 kts | 131° |
| 2026-05-05 16:20 | 47.55739 | 8.83157 | 10481 ft | 323 kts | 107° |
| 2026-05-05 16:21 | 47.55036 | 8.89489 | 10240 ft | 303 kts | 99° |
| 2026-05-05 16:22 | 47.54363 | 8.98406 | 9510 ft | 289 kts | 99° |
| 2026-05-05 16:22 | 47.52941 | 9.03834 | 8235 ft | 291 kts | 141° |
| 2026-05-05 16:23 | 47.49403 | 9.05610 | 7483 ft | 267 kts | 182° |
| 2026-05-05 16:23 | 47.47551 | 9.05455 | 7163 ft | 265 kts | 185° |
| 2026-05-05 16:23 | 47.44101 | 9.04009 | 6513 ft | 261 kts | 220° |
| 2026-05-05 16:24 | 47.43031 | 9.01880 | 6206 ft | 260 kts | 248° |
| 2026-05-05 16:24 | 47.42780 | 8.99279 | 5990 ft | 257 kts | 270° |
| 2026-05-05 16:24 | 47.43037 | 8.94089 | 5571 ft | 250 kts | 272° |
| 2026-05-05 16:25 | 47.43188 | 8.91580 | 5349 ft | 246 kts | 272° |
| 2026-05-05 16:25 | 47.43515 | 8.86629 | 5023 ft | 232 kts | 274° |
| 2026-05-05 16:25 | 47.43675 | 8.84333 | 4988 ft | 217 kts | 274° |
| 2026-05-05 16:26 | 47.43975 | 8.80146 | 4773 ft | 200 kts | 273° |
| 2026-05-05 16:26 | 47.44272 | 8.76139 | 4208 ft | 194 kts | 274° |
| 2026-05-05 16:27 | 47.44416 | 8.74201 | 3933 ft | 187 kts | 274° |
| 2026-05-05 16:27 | 47.44554 | 8.72341 | 3674 ft | 176 kts | 274° |
| 2026-05-05 16:27 | 47.44678 | 8.70625 | 3429 ft | 163 kts | 274° |
| 2026-05-05 16:27 | 47.44797 | 8.68961 | 3198 ft | 162 kts | 274° |
| 2026-05-05 16:28 | 47.44917 | 8.67331 | 2958 ft | 157 kts | 274° |
| 2026-05-05 16:28 | 47.45033 | 8.65747 | 2732 ft | 156 kts | 275° |
| 2026-05-05 16:28 | 47.45146 | 8.64156 | 2500 ft | 154 kts | 275° |
| 2026-05-05 16:28 | 47.45258 | 8.62609 | 2267 ft | 153 kts | 275° |
| 2026-05-05 16:29 | 47.45371 | 8.61056 | 2045 ft | 150 kts | 276° |
| 2026-05-05 16:29 | 47.45483 | 8.59533 | 1810 ft | 149 kts | 276° |
| 2026-05-05 16:29 | 47.45588 | 8.58015 | 1596 ft | 148 kts | 278° |
| 2026-05-05 16:29 | 47.45700 | 8.56495 | 1417 ft | 147 kts | 277° |
| 2026-05-05 16:30 | 47.45788 | 8.55262 | 1393 ft | 87 kts | 278° |
| 2026-05-05 16:30 | 47.45824 | 8.54705 | 1390 ft | 29 kts | 275° |
| 2026-05-05 16:30 | 47.45806 | 8.54451 | 1392 ft | 12 kts | 252° |
| 2026-05-05 16:30 | 47.45781 | 8.54345 | 1395 ft | 10 kts | 251° |
| 2026-05-05 16:31 | 47.45750 | 8.54249 | 1396 ft | 11 kts | 231° |
| 2026-05-05 16:31 | 47.45671 | 8.54203 | 1397 ft | 12 kts | 175° |
| 2026-05-05 16:31 | 47.45607 | 8.54296 | 1397 ft | 15 kts | 107° |
| 2026-05-05 16:31 | 47.45571 | 8.54466 | 1397 ft | 18 kts | 108° |
| 2026-05-05 16:32 | 47.45529 | 8.54649 | 1394 ft | 19 kts | 109° |
| 2026-05-05 16:32 | 47.45487 | 8.54834 | 1391 ft | 19 kts | 107° |
| 2026-05-05 16:32 | 47.45449 | 8.55010 | 1392 ft | 17 kts | 109° |
| 2026-05-05 16:32 | 47.45411 | 8.55161 | 1394 ft | 14 kts | 111° |
| 2026-05-05 16:33 | 47.45380 | 8.55280 | 1396 ft | 11 kts | 112° |
| 2026-05-05 16:33 | 47.45350 | 8.55370 | 1398 ft | 8 kts | 117° |
| 2026-05-05 16:33 | 47.45315 | 8.55458 | 1398 ft | 12 kts | 121° |
| 2026-05-05 16:33 | 47.45276 | 8.55579 | 1401 ft | 13 kts | 97° |
| 2026-05-05 16:34 | 47.45266 | 8.55705 | 1404 ft | 10 kts | 96° |
| 2026-05-05 16:34 | 47.45260 | 8.55791 | 1406 ft | 6 kts | 99° |
| 2026-05-05 16:34 | 47.45241 | 8.55815 | 1407 ft | 3 kts | 182° |
| 2026-05-05 16:34 | 47.45206 | 8.55810 | 1407 ft | 6 kts | 186° |
| 2026-05-05 16:35 | 47.45184 | 8.55806 | 1406 ft | 1 kts | 186° |
| 2026-05-05 16:35 | 47.45177 | 8.55805 | 1406 ft | 0 kts | 186° |